Meteorología y climatología de Navarra
Datos de la estación - Meteo Navarra

Estación de Erremendia (Salazar) GN

Altitud 1047 m.


Datos desde el 02/08/2020 hasta el 03/08/2020 en horario solar
Los datos son PROVISIONALES

Anterior Página 1 de 1 Siguiente Descargar: Formato para Excel 2000 o superior   Formato csv   Formato para OpenOffice Calc
Fecha Temperatura Humedad relativa Radiación global Insolación Precipitación Vel. viento 10 m Vel. viento 10 m Dir. viento 10 m
ºC % W/m² s l/m² m/s km/h º
02/08/2020 0:00 13.5 93 0.0 0 0.0 0.8 3.0 267
02/08/2020 0:10 13.4 94 0.0 0 0.0 0.9 3.3 249
02/08/2020 0:20 13.2 94 0.0 0 0.0 1.3 4.6 267
02/08/2020 0:30 13.0 94 0.0 0 0.0 1.0 3.7 287
02/08/2020 0:40 12.8 94 0.0 0 0.0 1.3 4.5 276
02/08/2020 0:50 12.7 95 0.0 0 0.0 0.9 3.3 287
02/08/2020 1:00 12.7 95 0.0 0 0.0 1.1 4.0 280
02/08/2020 1:10 13.0 96 0.0 0 0.0 0.9 3.1 281
02/08/2020 1:20 13.3 96 0.0 0 0.0 1.5 5.3 300
02/08/2020 1:30 13.6 97 0.0 0 0.0 1.3 4.8 294
02/08/2020 1:40 13.7 97 0.0 0 0.0 1.3 4.6 278
02/08/2020 1:50 13.7 97 0.0 0 0.0 1.2 4.3 296
02/08/2020 2:00 13.7 97 0.0 0 0.0 1.5 5.4 299
02/08/2020 2:10 13.7 97 0.0 0 0.0 1.2 4.2 285
02/08/2020 2:20 13.6 96 0.0 0 0.0 2.1 7.7 298
02/08/2020 2:30 13.2 96 0.0 0 0.0 2.6 9.4 309
02/08/2020 2:40 12.9 94 0.0 0 0.0 2.0 7.1 302
02/08/2020 2:50 12.6 94 0.0 0 0.0 1.9 6.9 294
02/08/2020 3:00 12.4 94 0.0 0 0.0 1.7 6.1 287
02/08/2020 3:10 12.4 94 0.0 0 0.0 2.2 8.0 289
02/08/2020 3:20 12.4 94 0.0 0 0.0 1.4 5.0 301
02/08/2020 3:30 12.5 94 0.0 0 0.0 1.4 5.1 283
02/08/2020 3:40 12.7 94 0.0 0 0.0 0.9 3.4 306
02/08/2020 3:50 12.7 93 0.0 0 0.0 1.5 5.4 270
02/08/2020 4:00 12.7 94 0.0 0 0.0 1.3 4.8 266
02/08/2020 4:10 12.7 94 0.0 0 0.0 1.4 5.1 284
02/08/2020 4:20 12.7 95 0.0 0 0.0 1.4 4.9 279
02/08/2020 4:30 12.7 95 0.0 0 0.0 1.7 6.2 301
02/08/2020 4:40 12.7 95 0.0 0 0.0 1.7 6.0 301
02/08/2020 4:50 12.8 95 0.0 0 0.0 1.3 4.7 293
02/08/2020 5:00 12.7 95 0.0 0 0.0 1.5 5.4 290
02/08/2020 5:10 12.7 95 0.0 0 0.0 1.4 4.9 289
02/08/2020 5:20 12.7 95 27.3 342 0.0 1.4 5.1 278
02/08/2020 5:30 12.8 95 59.1 600 0.0 1.1 4.0 281
02/08/2020 5:40 12.9 95 53.2 340 0.0 1.2 4.2 297
02/08/2020 5:50 13.0 94 41.4 38 0.0 0.9 3.1 289
02/08/2020 6:00 13.1 94 62.5 10 0.0 1.2 4.4 290
02/08/2020 6:10 13.2 94 100.4 238 0.0 1.5 5.5 294
02/08/2020 6:20 13.4 94 124.9 404 0.0 1.5 5.2 299
02/08/2020 6:30 13.6 92 90.6 44 0.0 1.9 6.8 310
02/08/2020 6:40 13.7 91 98.6 0 0.0 1.8 6.6 303
02/08/2020 6:50 13.8 91 161.5 176 0.0 1.6 5.7 289
02/08/2020 7:00 14.2 90 191.6 258 0.0 1.4 5.0 292
02/08/2020 7:10 14.1 88 180.7 130 0.0 1.9 6.8 299
02/08/2020 7:20 14.1 88 201.5 170 0.0 2.2 7.7 302
02/08/2020 7:30 14.3 87 257.9 338 0.0 2.0 7.1 292
02/08/2020 7:40 14.9 85 363.0 574 0.0 2.1 7.4 300
02/08/2020 7:50 15.1 84 286.6 442 0.0 2.2 8.0 318
02/08/2020 8:00 15.1 82 269.1 226 0.0 1.9 6.8 328
02/08/2020 8:10 15.0 83 212.6 48 0.0 2.5 9.1 308
02/08/2020 8:20 15.1 82 379.5 226 0.0 2.6 9.3 303
02/08/2020 8:30 15.3 81 503.5 600 0.0 2.1 7.6 326
02/08/2020 8:40 15.8 78 461.9 498 0.0 2.9 10.4 341
02/08/2020 8:50 15.5 78 410.0 332 0.0 2.7 9.7 339
02/08/2020 9:00 15.8 80 417.9 248 0.0 2.3 8.2 307
02/08/2020 9:10 15.5 81 423.7 298 0.0 2.5 9.1 308
02/08/2020 9:20 15.2 81 307.8 68 0.0 3.0 10.7 304
02/08/2020 9:30 14.9 81 369.4 124 0.0 2.3 8.4 318
02/08/2020 9:40 14.9 81 368.0 146 0.0 3.2 11.5 306
02/08/2020 9:50 14.8 81 254.9 0 0.0 3.0 10.6 307
02/08/2020 10:00 14.8 82 220.7 0 0.0 2.7 9.6 306
02/08/2020 10:10 14.8 81 273.8 0 0.0 2.4 8.6 303
02/08/2020 10:20 14.8 81 302.6 0 0.0 2.8 10.0 306
02/08/2020 10:30 15.1 80 307.8 0 0.0 2.1 7.4 320
02/08/2020 10:40 15.3 80 290.6 0 0.0 2.2 8.0 321
02/08/2020 10:50 14.9 81 301.7 0 0.0 3.3 11.8 329
02/08/2020 11:00 15.1 80 347.2 0 0.0 2.4 8.5 320
02/08/2020 11:10 15.0 80 334.1 0 0.0 3.3 11.7 312
02/08/2020 11:20 14.8 81 287.9 0 0.0 3.1 11.3 309
02/08/2020 11:30 14.4 83 313.5 0 0.0 2.8 10.2 307
02/08/2020 11:40 14.8 81 371.6 0 0.0 3.1 11.1 310
02/08/2020 11:50 14.9 80 380.0 0 0.0 2.9 10.5 307
02/08/2020 12:00 14.7 82 234.2 0 0.0 2.9 10.4 324
02/08/2020 12:10 14.4 82 297.7 0 0.0 2.5 8.8 346
02/08/2020 12:20 15.3 77 543.3 286 0.0 2.3 8.2 341
02/08/2020 12:30 15.7 75 458.2 132 0.0 3.2 11.3 326
02/08/2020 12:40 15.5 77 574.4 426 0.0 3.5 12.7 350
02/08/2020 12:50 15.4 79 337.3 36 0.0 3.3 12.0 341
02/08/2020 13:00 15.0 81 294.4 42 0.0 3.2 11.4 355
02/08/2020 13:10 14.7 82 248.7 0 0.0 3.3 12.0 0
02/08/2020 13:20 14.2 83 284.7 22 0.0 3.9 14.0 3
02/08/2020 13:30 14.8 79 480.4 264 0.0 2.4 8.7 347
02/08/2020 13:40 15.6 72 510.4 490 0.0 3.1 11.1 357
02/08/2020 13:50 15.9 68 417.1 70 0.0 3.2 11.6 351
02/08/2020 14:00 15.9 69 395.5 8 0.0 2.3 8.3 6
02/08/2020 14:10 15.7 68 399.1 28 0.0 2.2 8.1 342
02/08/2020 14:20 15.8 69 376.6 36 0.0 2.5 9.1 347
02/08/2020 14:30 15.5 72 206.9 0 0.0 3.0 10.7 4
02/08/2020 14:40 14.7 77 231.5 0 0.0 4.0 14.2 355
02/08/2020 14:50 14.7 76 285.6 0 0.0 4.3 15.4 344
02/08/2020 15:00 14.9 76 335.0 26 0.0 2.4 8.5 334
02/08/2020 15:10 15.6 73 384.9 264 0.0 2.5 9.0 337
02/08/2020 15:20 15.7 72 330.9 98 0.0 3.2 11.5 333
02/08/2020 15:30 15.6 73 342.6 238 0.0 3.8 13.8 340
02/08/2020 15:40 15.1 75 278.0 72 0.0 2.7 9.7 352
02/08/2020 15:50 15.2 74 268.3 0 0.0 3.2 11.4 356
02/08/2020 16:00 15.1 74 227.3 0 0.0 3.2 11.5 333
02/08/2020 16:10 15.1 73 225.6 0 0.0 2.8 10.0 343
02/08/2020 16:20 14.9 72 254.2 0 0.0 3.5 12.4 341
02/08/2020 16:30 14.8 71 251.6 0 0.0 3.1 11.3 348
02/08/2020 16:40 14.9 71 234.1 0 0.0 3.2 11.3 338
02/08/2020 16:50 14.8 71 231.6 0 0.0 3.1 11.1 344
02/08/2020 17:00 14.8 71 242.6 302 0.0 3.7 13.4 338
02/08/2020 17:10 14.7 70 261.4 468 0.0 4.4 15.9 337
02/08/2020 17:20 14.9 71 274.2 488 0.0 3.3 11.8 338
02/08/2020 17:30 14.7 72 185.3 230 0.0 3.8 13.7 341
02/08/2020 17:40 14.8 71 223.8 392 0.0 2.3 8.4 337
02/08/2020 17:50 14.8 70 149.6 254 0.0 2.6 9.4 353
02/08/2020 18:00 14.6 71 149.9 378 0.0 2.5 9.1 344
02/08/2020 18:10 14.3 73 74.3 30 0.0 1.3 4.8 344
02/08/2020 18:20 14.1 75 75.0 38 0.0 1.1 3.8 352
02/08/2020 18:30 13.7 77 72.5 72 0.0 2.7 9.8 351
02/08/2020 18:40 13.6 76 60.7 60 0.0 2.9 10.4 348
02/08/2020 18:50 13.5 77 46.7 116 0.0 2.2 7.8 350
02/08/2020 19:00 13.3 78 23.2 0 0.0 2.2 7.7 343
02/08/2020 19:10 13.1 79 3.1 0 0.0 2.5 9.0 352
02/08/2020 19:20 13.1 80 0.0 0 0.0 1.6 5.8 333
02/08/2020 19:30 12.9 81 0.0 0 0.0 2.1 7.7 325
02/08/2020 19:40 12.9 81 0.0 0 0.0 2.1 7.7 323
02/08/2020 19:50 13.0 81 0.0 0 0.0 2.6 9.4 350
02/08/2020 20:00 13.0 81 0.0 0 0.0 3.2 11.6 341
02/08/2020 20:10 13.0 81 0.0 0 0.0 3.0 10.6 343
02/08/2020 20:20 13.0 81 0.0 0 0.0 2.3 8.2 343
02/08/2020 20:30 12.8 82 0.0 0 0.0 2.9 10.3 355
02/08/2020 20:40 12.7 80 0.0 0 0.0 2.0 7.3 348
02/08/2020 20:50 12.5 81 0.0 0 0.0 1.0 3.7 309
02/08/2020 21:00 12.3 81 0.0 0 0.0 1.8 6.4 329
02/08/2020 21:10 12.2 80 0.0 0 0.0 2.3 8.2 344
02/08/2020 21:20 12.2 81 0.0 0 0.0 2.1 7.5 341
02/08/2020 21:30 12.2 81 0.0 0 0.0 1.9 7.0 333
02/08/2020 21:40 12.1 79 0.0 0 0.0 2.2 7.8 353
02/08/2020 21:50 12.1 79 0.0 0 0.0 2.4 8.5 350
02/08/2020 22:00 11.9 80 0.0 0 0.0 1.8 6.3 338
02/08/2020 22:10 11.9 81 0.0 0 0.0 2.2 7.9 1
02/08/2020 22:20 11.9 81 0.0 0 0.0 3.1 11.2 345
02/08/2020 22:30 12.0 80 0.0 0 0.0 3.5 12.7 358
02/08/2020 22:40 12.0 80 0.0 0 0.0 3.5 12.4 347
02/08/2020 22:50 11.9 80 0.0 0 0.0 3.4 12.2 347
02/08/2020 23:00 11.9 80 0.0 0 0.0 3.5 12.6 343
02/08/2020 23:10 11.8 79 0.0 0 0.0 4.0 14.5 338
02/08/2020 23:20 11.8 80 0.0 0 0.0 3.0 10.9 343
02/08/2020 23:30 11.7 81 0.0 0 0.0 2.3 8.4 352
02/08/2020 23:40 11.7 81 0.0 0 0.0 3.6 13.0 357
02/08/2020 23:50 11.6 80 0.0 0 0.0 3.2 11.4 349
Anterior Página 1 de 1 Siguiente

NOTA: Tipo de datos según el color:
   - Valores diarios o 10 minutos correctos
   - Valores diarios calculados a partir de un número de datos 10 minutos menor que 144 y mayor que 120, o de un número de datos semihorarios menor que 48 y mayor que 40 (caso de las estaciones de INTIA y del Ministerio)
   - Valores diez minutos estimados


Contacto        Enlaces        Aviso legal